Aeroporto :
LOGIN :

Iscrizione | Disclaimer

   EN    FR    IT 

 










Sommario :    VFR   VFR Marginale   IFR   IFR Intensivo   IFR Molto Intensivo
Visibilità : 
Base nubi : 
>= 8 km
>= 3000ft
5 / 8 km
1000 / 3000 ft
1500m / 5 km
500 / 1000 ft
800 / 1500m
200 / 500 ft
< 800m
< 200 ft
Simboli :   Temporali  Nebbia  Neve Forte  Precipitazioni Forti  Vento > 20 kt
SIGMETs :   Varie  Temporali  Ghiacco  Turbolenza  Onda orograficha  Ceneri Vulcaniche







- Altitudine del aeroporto : 309 ft
- Codice IATA : FNI
- Carte del aeroporto


LFTW - Nîmes Garons

ULTIMO METAR :
  • 151400Z AUTO 20007KT 150V260 CAVOK 30/14 Q1023 NOSIG

METARs OBSOLETI :
  • 151330Z AUTO 20009KT 160V260 CAVOK 30/14 Q1023 NOSIG
  • 151300Z AUTO 18009KT 140V210 CAVOK 29/13 Q1023 NOSIG
  • 151230Z AUTO 15009KT 110V190 9999 ///TCU 30/14 Q1023 BECMG NSC
  • 151200Z AUTO 16008KT 110V190 9999 ///TCU 29/13 Q1024 BECMG NSC
  • 151130Z AUTO 17008KT 130V210 CAVOK 31/13 Q1024 NOSIG
  • 151100Z AUTO VRB04KT CAVOK 30/14 Q1024 NOSIG

TAF TAF LFTW
Valido dal 15 a 09 ore il 16 a 09 ore UTC


150800Z 1509/1609 VRB05KT CAVOK
BECMG 1513/1515 18010KT
BECMG 1516/1518 VRB05KT
Nessun NOTAM noto per questo aeroporto.



MetMap, La meteo Aeronautica in un colpo d'occhio ! - Copyright ORBIFLY Dicembre 2007 - Disclaimer

ORBIFLY MET'MAP TEAM :

Programmazione e sviluppo : Alexandra Zaïnal
Concezione e sviluppo : Baudouin d'Aumeries
Co-Programmazione e sviluppo : Marc-Olivier Méhu
Supporto tecnico e logistico : Manuel Goepfert
Aiuto per la traduzione : Arnaldo La Scala

Contatto : metmap@orbifly.com




FONTI E CREDITI :

   NOAA